Time;durP1;ratioP1;P1;durP2;ratioP2;P2;SDS_P1;SDS_P2;PMS_P1;PMS_P2;Temp;Humidity;BMP_temperature;BMP_pressure;BME280_temperature;BME280_humidity;BME280_pressure;Samples;Min_cycle;Max_cycle;Signal;HPM_P1;HPM_P2
2023/12/03 00:02:12;;;;;;;1.67;1.50;;;1.00;98.20;;;;;;5014710;28;20483;-78
2023/12/03 00:04:42;;;;;;;1.63;1.50;;;1.00;98.20;;;;;;5024390;28;20487;-81
2023/12/03 00:07:09;;;;;;;1.60;1.50;;;1.00;98.20;;;;;;5021743;28;20493;-79
2023/12/03 00:09:37;;;;;;;1.70;1.60;;;1.00;98.20;;;;;;5031528;28;20980;-80
2023/12/03 00:12:05;;;;;;;1.70;1.60;;;1.00;98.20;;;;;;5025105;28;20479;-78
2023/12/03 00:14:32;;;;;;;1.80;1.70;;;0.90;98.20;;;;;;5029949;28;20471;-82
2023/12/03 00:16:59;;;;;;;1.70;1.50;;;0.90;98.20;;;;;;5010249;28;20483;-80
2023/12/03 00:19:26;;;;;;;1.70;1.60;;;0.90;98.20;;;;;;5026387;28;20506;-81
2023/12/03 00:21:54;;;;;;;1.70;1.60;;;0.90;98.20;;;;;;5024009;28;20487;-79
2023/12/03 00:24:21;;;;;;;1.70;1.60;;;0.90;98.20;;;;;;5028614;28;20460;-81
2023/12/03 00:26:48;;;;;;;1.67;1.50;;;0.90;98.20;;;;;;5023211;28;20525;-82
2023/12/03 00:29:15;;;;;;;1.63;1.50;;;0.90;98.20;;;;;;5033282;28;20467;-82
2023/12/03 00:31:42;;;;;;;1.70;1.60;;;1.00;98.20;;;;;;5021623;28;20859;-82
2023/12/03 00:34:09;;;;;;;1.60;1.50;;;1.00;98.20;;;;;;5037987;28;20462;-82
2023/12/03 00:36:36;;;;;;;1.70;1.50;;;1.00;98.20;;;;;;5021515;28;20480;-83
2023/12/03 00:39:04;;;;;;;1.70;1.50;;;1.00;98.20;;;;;;5039574;28;21038;-82
2023/12/03 00:41:31;;;;;;;1.70;1.60;;;1.10;98.20;;;;;;5027412;28;20493;-82
2023/12/03 00:46:25;;;;;;;1.70;1.50;;;1.10;98.20;;;;;;5043295;28;20493;-80
2023/12/03 00:48:52;;;;;;;1.63;1.50;;;1.10;98.20;;;;;;5058845;28;20512;-82
2023/12/03 00:51:19;;;;;;;1.63;1.50;;;1.10;98.20;;;;;;5045112;28;20622;-82
2023/12/03 00:53:46;;;;;;;1.70;1.50;;;1.20;98.20;;;;;;5057002;28;20594;-83
2023/12/03 00:56:14;;;;;;;1.67;1.50;;;1.20;98.20;;;;;;5036691;28;20481;-82
2023/12/03 00:58:41;;;;;;;1.60;1.50;;;1.20;98.20;;;;;;5059669;28;20490;-83
2023/12/03 01:01:08;;;;;;;1.70;1.50;;;1.20;98.20;;;;;;5033770;28;20570;-83
2023/12/03 01:03:35;;;;;;;1.90;1.80;;;1.20;98.20;;;;;;5035466;28;20505;-83
2023/12/03 01:06:02;;;;;;;1.63;1.50;;;1.30;98.20;;;;;;5023767;28;20458;-83
2023/12/03 01:08:29;;;;;;;1.70;1.60;;;1.30;98.20;;;;;;5056312;28;20550;-83
2023/12/03 01:10:55;;;;;;;1.70;1.60;;;1.30;98.20;;;;;;5036134;28;20465;-83
2023/12/03 01:13:24;;;;;;;1.63;1.50;;;1.30;98.20;;;;;;5052463;28;20502;-82
2023/12/03 01:15:50;;;;;;;1.80;1.70;;;1.30;98.20;;;;;;5028636;28;20470;-83
2023/12/03 01:18:17;;;;;;;1.70;1.50;;;1.30;98.20;;;;;;5054551;28;20629;-82
2023/12/03 01:20:44;;;;;;;1.70;1.60;;;1.30;98.20;;;;;;5044938;28;20497;-83
2023/12/03 01:23:11;;;;;;;1.70;1.60;;;1.30;98.20;;;;;;5033951;28;20524;-82
2023/12/03 01:25:38;;;;;;;1.70;1.40;;;1.30;98.20;;;;;;5040521;28;20469;-83
2023/12/03 01:28:05;;;;;;;1.67;1.50;;;1.40;98.20;;;;;;5053809;28;20491;-82
2023/12/03 01:30:33;;;;;;;1.70;1.50;;;1.40;98.20;;;;;;5043545;28;20459;-83
2023/12/03 01:32:59;;;;;;;1.70;1.50;;;1.40;98.20;;;;;;5030916;28;20559;-83
2023/12/03 01:35:26;;;;;;;1.60;1.40;;;1.40;98.20;;;;;;5047940;28;20484;-83
2023/12/03 01:37:55;;;;;;;1.80;1.70;;;1.40;98.20;;;;;;5065992;28;21029;-83
2023/12/03 01:40:22;;;;;;;1.63;1.40;;;1.40;98.20;;;;;;5048864;28;20466;-83
2023/12/03 01:42:49;;;;;;;1.70;1.60;;;1.40;98.20;;;;;;5065771;28;20492;-82
2023/12/03 01:45:16;;;;;;;1.70;1.60;;;1.40;98.20;;;;;;5061000;28;20490;-83
2023/12/03 01:47:44;;;;;;;1.60;1.50;;;1.40;98.20;;;;;;5050830;28;20561;-82
2023/12/03 01:50:12;;;;;;;1.70;1.50;;;1.40;98.20;;;;;;5050483;28;20505;-82
2023/12/03 01:52:40;;;;;;;1.60;1.50;;;1.40;98.20;;;;;;5056241;28;20584;-82
2023/12/03 01:55:08;;;;;;;1.67;1.50;;;1.40;98.20;;;;;;5041987;28;21330;-83
2023/12/03 01:57:35;;;;;;;2.10;1.90;;;1.40;98.20;;;;;;5045650;28;20485;-83
2023/12/03 02:00:04;;;;;;;1.67;1.50;;;1.40;98.20;;;;;;5052487;28;21210;-82
2023/12/03 02:02:31;;;;;;;1.70;1.50;;;1.40;98.20;;;;;;5049783;28;20624;-82
2023/12/03 02:04:59;;;;;;;1.67;1.50;;;1.40;98.20;;;;;;5055398;28;20486;-82
2023/12/03 02:07:26;;;;;;;1.70;1.50;;;1.40;98.20;;;;;;5053846;28;20478;-82
2023/12/03 02:09:53;;;;;;;1.60;1.40;;;1.50;98.20;;;;;;5045523;28;20469;-83
2023/12/03 02:12:20;;;;;;;1.67;1.40;;;1.50;98.20;;;;;;5050463;28;21009;-83
2023/12/03 02:14:46;;;;;;;1.63;1.40;;;1.50;98.20;;;;;;5050062;28;20489;-83
2023/12/03 02:17:13;;;;;;;1.63;1.50;;;1.50;98.20;;;;;;5047332;28;20480;-83
2023/12/03 02:19:40;;;;;;;1.70;1.50;;;1.50;98.20;;;;;;5046412;28;20577;-80
2023/12/03 02:22:08;;;;;;;1.70;1.60;;;1.50;98.20;;;;;;5043883;28;20919;-83
2023/12/03 02:24:36;;;;;;;1.63;1.40;;;1.40;98.20;;;;;;5043297;28;20486;-83
2023/12/03 02:27:04;;;;;;;1.60;1.50;;;1.40;98.20;;;;;;5045090;28;20595;-82
2023/12/03 02:29:30;;;;;;;1.70;1.50;;;1.40;98.20;;;;;;5048251;28;20585;-83
2023/12/03 02:31:58;;;;;;;1.63;1.43;;;1.40;98.20;;;;;;5047518;28;20847;-83
2023/12/03 02:34:25;;;;;;;1.70;1.43;;;1.40;98.20;;;;;;5047134;28;20490;-83
2023/12/03 02:36:51;;;;;;;1.80;1.70;;;1.40;98.20;;;;;;5047425;28;20486;-83
2023/12/03 02:39:18;;;;;;;1.60;1.43;;;1.40;98.20;;;;;;5053838;28;20493;-82
2023/12/03 02:41:46;;;;;;;1.60;1.50;;;1.40;98.20;;;;;;5040786;28;20545;-83
2023/12/03 02:44:13;;;;;;;1.67;1.50;;;1.40;98.20;;;;;;5055110;28;20490;-82
2023/12/03 02:46:40;;;;;;;1.67;1.50;;;1.40;98.20;;;;;;5038247;28;20497;-82
2023/12/03 02:49:10;;;;;;;1.80;1.60;;;1.40;98.20;;;;;;5046194;28;21713;-82
2023/12/03 02:51:37;;;;;;;1.70;1.60;;;1.40;98.20;;;;;;5039610;28;20481;-83
2023/12/03 02:54:04;;;;;;;1.63;1.50;;;1.40;98.20;;;;;;5056160;28;20490;-83
2023/12/03 02:56:31;;;;;;;1.70;1.60;;;1.30;98.20;;;;;;5036953;28;20847;-83
2023/12/03 02:58:59;;;;;;;1.63;1.50;;;1.30;98.20;;;;;;5057007;28;20490;-82
2023/12/03 03:01:26;;;;;;;1.63;1.50;;;1.30;98.20;;;;;;5039911;28;20476;-83
2023/12/03 03:03:53;;;;;;;1.60;1.50;;;1.40;98.20;;;;;;5054819;28;20496;-83
2023/12/03 03:06:19;;;;;;;1.60;1.47;;;1.30;98.20;;;;;;5042228;28;20469;-83
2023/12/03 03:08:46;;;;;;;1.70;1.60;;;1.30;98.20;;;;;;5057764;28;20450;-82
2023/12/03 03:11:13;;;;;;;1.60;1.50;;;1.30;98.20;;;;;;5038810;28;20539;-83
2023/12/03 03:13:40;;;;;;;1.67;1.50;;;1.30;98.20;;;;;;5058664;28;20494;-83
2023/12/03 03:16:09;;;;;;;1.67;1.50;;;1.30;98.20;;;;;;5038420;28;20478;-84
2023/12/03 03:18:35;;;;;;;1.63;1.50;;;1.30;98.20;;;;;;5055778;28;20485;-83
2023/12/03 03:21:03;;;;;;;1.70;1.40;;;1.30;98.20;;;;;;5037229;28;20954;-84
2023/12/03 03:23:30;;;;;;;1.60;1.40;;;1.30;98.20;;;;;;5062731;28;20564;-82
2023/12/03 03:25:56;;;;;;;2.37;2.17;;;1.30;98.20;;;;;;5038860;28;20869;-83
2023/12/03 03:28:23;;;;;;;1.70;1.50;;;1.30;98.20;;;;;;5055087;28;20467;-83
2023/12/03 03:30:50;;;;;;;1.70;1.60;;;1.30;98.20;;;;;;5039077;28;20468;-83
2023/12/03 03:33:18;;;;;;;1.70;1.50;;;1.30;98.20;;;;;;5065617;28;20473;-83
2023/12/03 03:35:45;;;;;;;1.70;1.60;;;1.30;98.20;;;;;;5044100;28;20477;-82
2023/12/03 03:38:12;;;;;;;1.63;1.40;;;1.20;98.20;;;;;;5037469;28;20759;-83
2023/12/03 03:40:38;;;;;;;1.63;1.50;;;1.20;98.20;;;;;;5041746;28;20486;-83
2023/12/03 03:43:05;;;;;;;1.60;1.40;;;1.20;98.20;;;;;;5043206;28;20878;-85
2023/12/03 03:45:32;;;;;;;1.60;1.50;;;1.20;98.20;;;;;;5043341;28;20486;-84
2023/12/03 03:47:59;;;;;;;1.70;1.50;;;1.20;98.20;;;;;;5052584;28;20536;-83
2023/12/03 03:50:27;;;;;;;1.70;1.50;;;1.20;98.20;;;;;;5042022;28;20971;-84
2023/12/03 03:52:54;;;;;;;1.70;1.50;;;1.30;98.20;;;;;;5059957;28;20483;-81
2023/12/03 03:55:21;;;;;;;1.63;1.50;;;1.20;98.20;;;;;;5046227;28;20478;-83
2023/12/03 03:57:48;;;;;;;1.60;1.50;;;1.20;98.20;;;;;;5050550;28;20473;-84
2023/12/03 04:00:15;;;;;;;1.70;1.50;;;1.20;98.20;;;;;;5042929;28;20483;-83
2023/12/03 04:02:42;;;;;;;1.67;1.50;;;1.20;98.20;;;;;;5053916;28;20481;-84
2023/12/03 04:05:10;;;;;;;1.70;1.60;;;1.20;98.20;;;;;;5042400;28;20481;-83
2023/12/03 04:07:38;;;;;;;1.63;1.50;;;1.20;98.20;;;;;;5044086;28;20480;-83
2023/12/03 04:10:06;;;;;;;1.60;1.50;;;1.20;98.20;;;;;;5045922;28;20856;-83
2023/12/03 04:12:32;;;;;;;1.70;1.60;;;1.20;98.20;;;;;;5045273;28;20802;-82
2023/12/03 04:14:59;;;;;;;1.67;1.50;;;1.20;98.20;;;;;;5045816;28;20475;-84
2023/12/03 04:17:26;;;;;;;1.60;1.50;;;1.20;98.20;;;;;;5053188;28;21011;-83
2023/12/03 04:19:53;;;;;;;1.70;1.50;;;1.20;98.20;;;;;;5046681;28;20824;-83
2023/12/03 04:22:20;;;;;;;1.70;1.60;;;1.30;98.20;;;;;;5053199;28;20481;-83
2023/12/03 04:24:48;;;;;;;1.60;1.50;;;1.20;98.20;;;;;;5055458;28;20485;-83
2023/12/03 04:27:15;;;;;;;1.67;1.50;;;1.20;98.20;;;;;;5045884;28;21041;-84
2023/12/03 04:29:42;;;;;;;1.67;1.50;;;1.20;98.20;;;;;;5047952;28;20467;-83
2023/12/03 04:32:09;;;;;;;1.67;1.50;;;1.20;98.20;;;;;;5043772;28;20485;-83
2023/12/03 04:34:36;;;;;;;1.63;1.50;;;1.20;98.20;;;;;;5047900;28;20539;-82
2023/12/03 04:37:03;;;;;;;1.63;1.47;;;1.20;98.20;;;;;;5045284;28;20476;-82
2023/12/03 04:39:30;;;;;;;1.60;1.40;;;1.20;98.20;;;;;;5052555;28;20486;-84
2023/12/03 04:41:58;;;;;;;1.70;1.50;;;1.20;98.20;;;;;;5043338;28;20488;-84
2023/12/03 04:44:25;;;;;;;1.80;1.70;;;1.20;98.20;;;;;;5047661;28;20505;-83
2023/12/03 04:46:52;;;;;;;1.70;1.60;;;1.20;98.20;;;;;;5048442;28;20712;-83
2023/12/03 04:49:19;;;;;;;1.63;1.50;;;1.20;98.20;;;;;;5054389;28;20964;-83
2023/12/03 04:51:45;;;;;;;1.67;1.50;;;1.20;98.20;;;;;;5032803;28;20474;-84
2023/12/03 04:54:12;;;;;;;1.63;1.50;;;1.20;98.20;;;;;;5046477;28;20484;-84
2023/12/03 04:56:39;;;;;;;1.83;1.73;;;1.20;98.20;;;;;;5040077;28;20477;-83
2023/12/03 04:59:07;;;;;;;1.63;1.50;;;1.20;98.20;;;;;;5057105;28;20486;-83
2023/12/03 05:01:34;;;;;;;1.63;1.50;;;1.20;98.20;;;;;;5041494;28;20492;-84
2023/12/03 05:04:01;;;;;;;2.87;2.67;;;1.20;98.20;;;;;;5053714;28;20498;-81
2023/12/03 05:06:37;;;;;;;1.60;1.40;;;1.20;98.20;;;;;;5037881;28;20520;-80
2023/12/03 05:09:05;;;;;;;1.63;1.50;;;1.20;98.20;;;;;;5059008;28;20458;-82
2023/12/03 05:11:32;;;;;;;1.70;1.60;;;1.20;98.20;;;;;;5045654;28;20484;-81
2023/12/03 05:13:59;;;;;;;1.60;1.50;;;1.20;98.20;;;;;;5061645;28;20488;-83
2023/12/03 05:16:27;;;;;;;1.70;1.50;;;1.20;98.20;;;;;;5042736;28;20560;-82
2023/12/03 05:18:54;;;;;;;1.60;1.50;;;1.20;98.20;;;;;;5058941;28;20506;-81
2023/12/03 05:21:20;;;;;;;1.60;1.40;;;1.20;98.20;;;;;;5041661;28;21113;-80
2023/12/03 05:23:47;;;;;;;1.63;1.50;;;1.20;98.20;;;;;;5056413;28;20481;-82
2023/12/03 05:26:14;;;;;;;1.70;1.50;;;1.20;98.20;;;;;;5040879;28;20466;-81
2023/12/03 05:28:42;;;;;;;1.70;1.50;;;1.10;98.20;;;;;;5062307;28;20474;-82
2023/12/03 05:31:09;;;;;;;1.87;1.77;;;1.10;98.20;;;;;;5043043;28;20481;-80
2023/12/03 05:33:38;;;;;;;1.60;1.47;;;1.10;98.20;;;;;;5053513;28;20576;-82
2023/12/03 05:36:05;;;;;;;1.63;1.50;;;1.00;98.20;;;;;;5040371;28;20459;-80
2023/12/03 05:38:32;;;;;;;1.67;1.50;;;1.00;98.20;;;;;;5061094;28;20470;-82
2023/12/03 05:40:59;;;;;;;1.67;1.50;;;1.00;98.20;;;;;;5041857;28;20486;-81
2023/12/03 05:43:25;;;;;;;1.67;1.50;;;0.90;98.20;;;;;;5055498;28;20468;-82
2023/12/03 05:45:52;;;;;;;1.63;1.50;;;0.90;98.20;;;;;;5041450;28;20468;-80
2023/12/03 05:48:21;;;;;;;1.77;1.67;;;0.90;98.20;;;;;;5053732;28;20476;-81
2023/12/03 05:50:49;;;;;;;2.23;2.03;;;0.90;98.20;;;;;;5043738;28;20783;-81
2023/12/03 05:53:15;;;;;;;1.70;1.50;;;0.80;98.20;;;;;;5061104;28;20604;-81
2023/12/03 05:55:42;;;;;;;1.67;1.57;;;0.80;98.20;;;;;;5043087;28;20473;-81
2023/12/03 05:58:09;;;;;;;1.60;1.50;;;0.80;98.20;;;;;;5051752;28;20474;-81
2023/12/03 06:00:37;;;;;;;1.63;1.50;;;0.70;98.20;;;;;;5047061;28;21142;-81
2023/12/03 06:03:04;;;;;;;1.70;1.60;;;0.70;98.20;;;;;;5057213;28;20477;-80
2023/12/03 06:05:30;;;;;;;1.70;1.50;;;0.70;98.20;;;;;;5060061;28;20493;-79
2023/12/03 06:07:59;;;;;;;1.80;1.70;;;0.60;98.20;;;;;;5055308;28;20564;-81
2023/12/03 06:10:26;;;;;;;1.70;1.60;;;0.60;98.20;;;;;;5045087;28;20547;-81
2023/12/03 06:12:52;;;;;;;1.63;1.50;;;0.60;98.20;;;;;;5051784;28;20490;-81
2023/12/03 06:15:19;;;;;;;1.67;1.57;;;0.60;98.20;;;;;;5046834;28;20482;-81
2023/12/03 06:17:46;;;;;;;1.70;1.60;;;0.60;98.20;;;;;;5046904;28;20488;-81
2023/12/03 06:20:13;;;;;;;1.70;1.60;;;0.50;98.20;;;;;;5046877;28;20482;-81
2023/12/03 06:22:40;;;;;;;1.63;1.50;;;0.50;98.20;;;;;;5047012;28;20489;-81
2023/12/03 06:25:09;;;;;;;1.60;1.50;;;0.50;98.20;;;;;;5048281;28;20767;-81
2023/12/03 06:27:36;;;;;;;1.60;1.50;;;0.40;98.20;;;;;;5048380;28;20484;-81
2023/12/03 06:30:03;;;;;;;1.70;1.60;;;0.40;98.20;;;;;;5047593;28;20527;-79
2023/12/03 06:32:29;;;;;;;1.67;1.50;;;0.30;98.20;;;;;;5046788;28;20482;-80
2023/12/03 06:34:56;;;;;;;1.70;1.60;;;0.30;98.20;;;;;;5045081;28;20478;-79
2023/12/03 06:37:23;;;;;;;1.70;1.60;;;0.30;98.20;;;;;;5044574;28;20853;-81
2023/12/03 06:39:50;;;;;;;2.47;2.27;;;0.30;98.20;;;;;;5051182;28;20486;-77
2023/12/03 06:42:18;;;;;;;1.67;1.50;;;0.30;98.20;;;;;;5047873;28;20596;-79
2023/12/03 06:44:45;;;;;;;1.70;1.60;;;0.20;98.20;;;;;;5050490;28;20493;-81
2023/12/03 06:47:12;;;;;;;1.80;1.70;;;0.20;98.20;;;;;;5047387;28;21018;-81
2023/12/03 06:49:38;;;;;;;1.70;1.60;;;0.20;98.20;;;;;;5053325;28;20833;-79
2023/12/03 06:52:06;;;;;;;1.70;1.60;;;0.20;98.20;;;;;;5045805;28;20503;-79
2023/12/03 06:54:33;;;;;;;1.90;1.70;;;0.20;98.20;;;;;;5048593;28;21467;-77
2023/12/03 06:57:00;;;;;;;1.70;1.60;;;0.20;98.20;;;;;;5043208;28;20573;-80
2023/12/03 06:59:28;;;;;;;1.60;1.50;;;0.20;98.20;;;;;;5052213;28;20537;-82
2023/12/03 07:01:55;;;;;;;1.70;1.60;;;0.20;98.20;;;;;;5041362;28;20566;-80
2023/12/03 07:04:22;;;;;;;1.70;1.60;;;0.20;98.20;;;;;;5051607;28;20490;-80
2023/12/03 07:06:48;;;;;;;1.60;1.50;;;0.20;98.20;;;;;;5044739;28;20482;-81
2023/12/03 07:09:15;;;;;;;1.80;1.70;;;0.30;98.20;;;;;;5052626;28;20465;-80
2023/12/03 07:11:42;;;;;;;1.63;1.50;;;0.30;98.20;;;;;;5042782;28;20502;-78
2023/12/03 07:14:09;;;;;;;1.67;1.57;;;0.30;98.20;;;;;;5055705;28;20492;-80
2023/12/03 07:16:37;;;;;;;1.63;1.50;;;0.30;98.20;;;;;;5038954;28;21290;-81
2023/12/03 07:19:04;;;;;;;1.73;1.63;;;0.40;98.20;;;;;;5054977;28;20454;-81
2023/12/03 07:21:31;;;;;;;1.70;1.60;;;0.40;98.20;;;;;;5044361;28;20509;-81
2023/12/03 07:23:57;;;;;;;1.60;1.50;;;0.40;98.20;;;;;;5055679;28;20486;-82
2023/12/03 07:26:24;;;;;;;1.70;1.50;;;0.50;98.20;;;;;;5043861;28;20499;-81
2023/12/03 07:28:51;;;;;;;1.70;1.50;;;0.50;98.20;;;;;;5052600;28;20542;-79
2023/12/03 07:31:18;;;;;;;1.60;1.50;;;0.50;98.20;;;;;;5040630;28;20474;-83
2023/12/03 07:33:46;;;;;;;1.63;1.50;;;0.50;98.20;;;;;;5053436;28;20558;-80
2023/12/03 07:36:13;;;;;;;1.63;1.50;;;0.50;98.20;;;;;;5041772;28;21012;-80
2023/12/03 07:38:46;;;;;;;1.70;1.60;;;0.50;98.20;;;;;;5059755;28;20556;-83
2023/12/03 07:41:18;;;;;;;1.67;1.50;;;0.50;98.20;;;;;;5037709;28;20513;-80
2023/12/03 07:43:57;;;;;;;1.70;1.60;;;0.50;98.20;;;;;;5055447;28;20485;-81
2023/12/03 07:46:24;;;;;;;1.70;1.60;;;0.50;98.20;;;;;;5038586;28;20473;-81
2023/12/03 07:49:07;;;;;;;6.03;4.60;;;0.50;98.20;;;;;;5057977;28;20638;-78
2023/12/03 07:52:29;;;;;;;1.80;1.70;;;0.50;98.20;;;;;;5034711;28;20484;-80
2023/12/03 07:55:07;;;;;;;1.70;1.60;;;0.50;98.20;;;;;;4963654;28;20540;-80
2023/12/03 08:03:55;;;;;;;1.80;1.70;;;0.40;98.20;;;;;;5024606;28;20896;-81
2023/12/03 08:07:10;;;;;;;1.60;1.50;;;0.40;98.20;;;;;;5020097;28;20592;-80
2023/12/03 08:09:37;;;;;;;1.63;1.50;;;0.40;98.20;;;;;;5049081;28;20463;-80
2023/12/03 08:12:37;;;;;;;3.03;2.83;;;0.40;98.20;;;;;;5045199;28;20568;-80
2023/12/03 08:15:16;;;;;;;1.80;1.70;;;0.50;98.20;;;;;;5057208;28;20482;-80
2023/12/03 08:24:21;;;;;;;1.67;1.50;;;0.60;98.20;;;;;;5052034;28;20717;-79
2023/12/03 08:29:39;;;;;;;2.00;1.90;;;0.70;98.20;;;;;;5047669;28;20539;-81
2023/12/03 08:35:26;;;;;;;1.70;1.60;;;0.80;98.20;;;;;;4990804;28;20494;-80
2023/12/03 08:38:07;;;;;;;1.60;1.50;;;0.90;98.20;;;;;;5048089;28;20880;-80
2023/12/03 08:41:06;;;;;;;1.70;1.50;;;1.10;98.20;;;;;;5047692;28;20510;-80
2023/12/03 08:43:33;;;;;;;1.67;1.50;;;1.10;98.20;;;;;;5002310;28;20485;-80
2023/12/03 08:46:04;;;;;;;1.67;1.50;;;1.20;98.20;;;;;;5038158;28;20714;-81
2023/12/03 08:48:41;;;;;;;1.70;1.50;;;1.20;98.20;;;;;;5059025;28;20468;-81
2023/12/03 08:51:31;;;;;;;1.70;1.50;;;1.20;98.20;;;;;;5039499;28;20507;-80
2023/12/03 08:54:18;;;;;;;1.60;1.50;;;1.20;98.20;;;;;;5056107;28;20478;-82
2023/12/03 08:56:56;;;;;;;1.70;1.50;;;1.20;98.20;;;;;;5043277;28;20508;-83
2023/12/03 08:59:49;;;;;;;1.67;1.50;;;1.20;98.20;;;;;;5048198;28;20463;-82
2023/12/03 09:02:17;;;;;;;1.70;1.50;;;1.20;98.20;;;;;;5044976;28;20562;-82
2023/12/03 09:04:43;;;;;;;1.70;1.50;;;1.10;98.20;;;;;;5047311;28;20561;-82
2023/12/03 09:07:24;;;;;;;;;;;;;;;;;;;;;
2023/12/03 09:10:01;;;;;;;1.70;1.50;;;1.10;98.20;;;;;;5045211;28;20466;-82
2023/12/03 09:12:47;;;;;;;2.40;2.20;;;1.10;98.20;;;;;;5037428;28;20462;-82
2023/12/03 09:15:18;;;;;;;1.67;1.50;;;1.10;98.20;;;;;;5046429;28;20509;-80
2023/12/03 09:17:50;;;;;;;1.63;1.50;;;1.10;98.20;;;;;;5048576;28;20868;-82
2023/12/03 09:20:20;;;;;;;1.70;1.50;;;1.20;98.20;;;;;;5046856;28;21576;-82
2023/12/03 09:32:53;;;;;;;1.70;1.60;;;1.20;98.20;;;;;;5041057;28;20461;-82
2023/12/03 09:35:31;;;;;;;1.63;1.50;;;1.20;98.20;;;;;;5045423;28;20474;-80
2023/12/03 09:38:28;;;;;;;1.60;1.40;;;1.20;98.20;;;;;;5052142;28;20994;-80
2023/12/03 09:41:08;;;;;;;1.70;1.50;;;1.30;98.20;;;;;;5041056;28;20481;-81
2023/12/03 09:43:38;;;;;;;1.70;1.50;;;1.30;98.20;;;;;;5061878;28;20904;-79
2023/12/03 09:46:42;;;;;;;1.60;1.50;;;1.30;98.20;;;;;;5034166;28;20535;-79
2023/12/03 09:49:47;;;;;;;1.63;1.50;;;1.30;98.20;;;;;;5064784;28;20454;-79
2023/12/03 09:52:47;;;;;;;1.80;1.70;;;1.30;98.20;;;;;;5045578;28;20501;-82
2023/12/03 09:55:38;;;;;;;1.67;1.50;;;1.30;98.20;;;;;;5051398;28;20478;-82
2023/12/03 09:58:06;;;;;;;1.70;1.50;;;1.30;98.20;;;;;;5044763;28;20474;-78
2023/12/03 10:00:55;;;;;;;1.67;1.50;;;1.30;98.20;;;;;;5048184;28;20499;-79
2023/12/03 10:03:35;;;;;;;1.67;1.50;;;1.40;98.20;;;;;;5035613;28;20483;-82
2023/12/03 10:06:32;;;;;;;1.67;1.50;;;1.40;98.20;;;;;;5038457;28;20549;-82
2023/12/03 10:09:17;;;;;;;1.70;1.50;;;1.40;98.20;;;;;;5054075;28;20963;-79
2023/12/03 10:12:26;;;;;;;1.60;1.40;;;1.40;98.20;;;;;;5046894;28;20474;-81
2023/12/03 10:15:19;;;;;;;1.60;1.43;;;1.40;98.20;;;;;;5041940;28;21201;-80
2023/12/03 10:18:08;;;;;;;1.63;1.50;;;1.40;98.20;;;;;;5055048;28;20477;-81
2023/12/03 10:21:08;;;;;;;;;;;;;;;;;;;;;
2023/12/03 10:27:04;;;;;;;1.70;1.53;;;1.50;98.20;;;;;;5034526;28;20518;-81
2023/12/03 10:29:44;;;;;;;1.60;1.50;;;1.60;98.20;;;;;;5062369;28;20512;-81
2023/12/03 10:32:40;;;;;;;1.60;1.50;;;1.60;98.20;;;;;;5044435;28;20488;-83
2023/12/03 10:35:11;;;;;;;1.67;1.50;;;1.60;98.20;;;;;;5043594;28;20482;-83
2023/12/03 10:37:49;;;;;;;1.60;1.50;;;1.60;98.20;;;;;;5053538;28;20505;-81
2023/12/03 10:40:33;;;;;;;1.67;1.50;;;1.70;98.20;;;;;;5043359;28;20458;-83
2023/12/03 10:43:00;;;;;;;1.67;1.50;;;1.70;98.20;;;;;;5049053;28;20508;-81
2023/12/03 10:45:27;;;;;;;1.70;1.50;;;1.70;98.20;;;;;;5045180;28;20513;-81
2023/12/03 10:47:59;;;;;;;1.60;1.50;;;1.70;98.20;;;;;;5052757;28;20491;-82
2023/12/03 10:50:27;;;;;;;5.53;5.20;;;1.70;98.20;;;;;;5038601;28;20902;-84
2023/12/03 10:52:59;;;;;;;1.60;1.43;;;1.70;98.20;;;;;;5039786;28;20469;-84
2023/12/03 10:55:26;;;;;;;1.70;1.50;;;1.70;98.20;;;;;;5035065;28;20586;-83
2023/12/03 11:00:22;;;;;;;1.67;1.40;;;1.80;98.20;;;;;;5004786;28;20499;-81
2023/12/03 11:03:00;;;;;;;1.60;1.40;;;1.90;98.20;;;;;;5020324;28;20486;-80
2023/12/03 11:05:32;;;;;;;1.60;1.40;;;1.90;98.20;;;;;;5021669;28;20451;-82
2023/12/03 11:08:03;;;;;;;1.60;1.40;;;1.80;98.20;;;;;;5016849;28;20530;-81
2023/12/03 11:10:30;;;;;;;1.60;1.40;;;1.80;98.20;;;;;;5017081;28;20471;-82
2023/12/03 11:13:00;;;;;;;1.63;1.40;;;1.90;98.20;;;;;;5031173;28;20474;-82
2023/12/03 11:15:28;;;;;;;1.67;1.50;;;1.90;98.20;;;;;;5022294;28;20496;-84
2023/12/03 11:17:55;;;;;;;1.67;1.40;;;1.90;98.20;;;;;;5027695;28;20482;-82
2023/12/03 11:20:27;;;;;;;1.60;1.40;;;1.90;98.20;;;;;;5022884;28;20467;-81
2023/12/03 11:23:09;;;;;;;1.63;1.50;;;1.90;98.20;;;;;;5027325;28;20503;-80
2023/12/03 11:25:43;;;;;;;1.60;1.37;;;2.00;98.20;;;;;;5018032;28;20470;-83
2023/12/03 11:28:10;;;;;;;1.70;1.50;;;2.10;98.20;;;;;;5026707;28;20494;-83
2023/12/03 11:30:39;;;;;;;1.70;1.60;;;2.10;98.20;;;;;;5025599;28;20500;-84
2023/12/03 11:33:11;;;;;;;1.70;1.50;;;2.10;98.20;;;;;;5024116;28;20763;-82
2023/12/03 11:35:40;;;;;;;1.77;1.67;;;2.20;98.20;;;;;;5023295;28;20498;-82
2023/12/03 11:38:16;;;;;;;1.60;1.40;;;2.20;98.20;;;;;;5033895;28;20517;-84
2023/12/03 11:40:43;;;;;;;1.67;1.50;;;2.30;98.20;;;;;;5027399;28;20807;-83
2023/12/03 11:43:24;;;;;;;1.70;1.50;;;2.30;98.20;;;;;;5034446;28;20514;-82
2023/12/03 11:45:51;;;;;;;1.63;1.50;;;2.30;98.20;;;;;;5011279;28;20469;-84
2023/12/03 11:48:18;;;;;;;1.63;1.50;;;2.30;98.20;;;;;;5029497;28;21066;-84
2023/12/03 11:50:46;;;;;;;1.70;1.50;;;2.40;98.20;;;;;;5019638;28;20463;-83
2023/12/03 11:53:16;;;;;;;1.70;1.60;;;2.40;98.20;;;;;;5006745;28;20534;-84
2023/12/03 11:55:45;;;;;;;1.70;1.50;;;2.40;98.20;;;;;;5024116;28;20479;-82
2023/12/03 11:58:12;;;;;;;1.60;1.50;;;2.40;98.20;;;;;;5017085;28;20489;-82
2023/12/03 12:00:41;;;;;;;1.60;1.43;;;2.50;98.20;;;;;;5027459;28;20487;-84
2023/12/03 12:03:09;;;;;;;2.10;1.90;;;2.50;98.20;;;;;;5029049;28;20494;-78
2023/12/03 12:05:44;;;;;;;1.70;1.50;;;2.50;98.20;;;;;;5021930;28;20894;-82
2023/12/03 12:08:10;;;;;;;1.60;1.40;;;2.50;98.20;;;;;;5025132;28;20479;-82
2023/12/03 12:10:38;;;;;;;1.63;1.40;;;2.60;98.20;;;;;;5019738;28;20474;-84
2023/12/03 12:13:06;;;;;;;2.00;1.80;;;2.60;98.20;;;;;;5036865;28;21023;-80
2023/12/03 12:15:33;;;;;;;1.67;1.40;;;2.60;98.20;;;;;;5017821;28;20481;-80
2023/12/03 12:18:00;;;;;;;1.70;1.40;;;2.60;98.20;;;;;;5032455;28;20495;-82
2023/12/03 12:20:29;;;;;;;1.60;1.40;;;2.60;98.20;;;;;;5018801;28;20511;-80
2023/12/03 12:22:56;;;;;;;1.60;1.33;;;2.60;98.20;;;;;;5034665;28;20553;-82
2023/12/03 12:25:26;;;;;;;1.60;1.40;;;2.70;98.20;;;;;;5018700;28;20514;-81
2023/12/03 12:27:55;;;;;;;2.83;2.63;;;2.70;98.20;;;;;;5033820;28;20486;-81
2023/12/03 12:30:25;;;;;;;1.67;1.40;;;2.70;98.20;;;;;;5024708;28;21013;-81
2023/12/03 12:32:52;;;;;;;1.80;1.70;;;2.70;98.20;;;;;;5033605;28;20485;-80
2023/12/03 12:35:20;;;;;;;2.33;2.13;;;2.80;98.20;;;;;;5020680;28;20998;-81
2023/12/03 12:37:47;;;;;;;1.60;1.40;;;2.90;98.20;;;;;;5032640;28;20478;-79
2023/12/03 12:40:16;;;;;;;1.63;1.40;;;3.00;98.20;;;;;;5020729;28;20539;-80
2023/12/03 12:42:47;;;;;;;1.70;1.40;;;3.00;98.20;;;;;;5025102;28;20489;-81
2023/12/03 12:45:31;;;;;;;1.70;1.50;;;3.10;98.20;;;;;;5023644;28;20490;-81
2023/12/03 12:47:58;;;;;;;1.67;1.40;;;3.20;98.20;;;;;;5026187;28;20481;-81
2023/12/03 12:50:35;;;;;;;1.70;1.40;;;3.30;98.20;;;;;;5017032;28;20462;-81
2023/12/03 12:53:03;;;;;;;2.30;2.10;;;3.50;98.20;;;;;;5030697;28;20474;-79
2023/12/03 12:55:31;;;;;;;1.60;1.40;;;3.70;98.20;;;;;;5020255;28;20498;-80
2023/12/03 12:57:58;;;;;;;1.60;1.40;;;3.80;98.20;;;;;;5033248;28;20491;-81
2023/12/03 13:00:25;;;;;;;1.60;1.40;;;3.80;98.20;;;;;;5024251;28;20467;-81
2023/12/03 13:02:54;;;;;;;1.63;1.40;;;3.90;98.20;;;;;;5031821;28;20985;-81
2023/12/03 13:05:22;;;;;;;1.60;1.40;;;3.90;98.20;;;;;;5021208;28;20478;-79
2023/12/03 13:07:49;;;;;;;1.70;1.50;;;3.90;98.20;;;;;;5024135;28;20486;-81
2023/12/03 13:10:16;;;;;;;1.60;1.30;;;3.90;98.20;;;;;;5022421;28;20468;-80
2023/12/03 13:12:43;;;;;;;1.60;1.40;;;4.00;98.20;;;;;;5020197;28;20565;-82
2023/12/03 13:15:11;;;;;;;3.30;3.10;;;3.90;98.20;;;;;;5023523;28;20468;-82
2023/12/03 13:17:46;;;;;;;1.63;1.40;;;3.80;98.20;;;;;;5038233;28;20481;-82
2023/12/03 13:20:14;;;;;;;1.67;1.40;;;3.80;98.20;;;;;;5029570;28;20469;-82
2023/12/03 13:22:43;;;;;;;3.30;3.10;;;3.70;98.20;;;;;;5024655;28;21000;-83
2023/12/03 13:25:09;;;;;;;2.23;2.03;;;3.70;98.20;;;;;;5033337;28;20865;-84
2023/12/03 13:27:36;;;;;;;1.60;1.40;;;3.70;98.20;;;;;;5025366;28;20485;-82
2023/12/03 13:30:04;;;;;;;1.63;1.37;;;3.70;98.20;;;;;;5029407;28;20893;-83
2023/12/03 13:32:33;;;;;;;1.70;1.40;;;3.60;98.20;;;;;;5027733;28;20483;-81
2023/12/03 13:35:03;;;;;;;1.60;1.40;;;3.40;98.20;;;;;;5027942;28;20486;-84
2023/12/03 13:37:32;;;;;;;1.60;1.40;;;3.40;98.20;;;;;;5031322;28;20470;-81
2023/12/03 13:39:59;;;;;;;1.60;1.30;;;3.40;98.20;;;;;;5031125;28;20462;-81
2023/12/03 13:42:26;;;;;;;1.60;1.30;;;3.30;98.20;;;;;;5018537;28;20489;-82
2023/12/03 13:44:53;;;;;;;1.70;1.40;;;3.20;98.20;;;;;;5028262;28;20471;-82
2023/12/03 13:47:20;;;;;;;1.63;1.30;;;3.10;98.20;;;;;;5032419;28;20482;-82
2023/12/03 13:49:46;;;;;;;1.60;1.40;;;3.10;98.20;;;;;;5032095;28;20490;-80
2023/12/03 13:52:13;;;;;;;1.60;1.37;;;3.10;98.20;;;;;;5028501;28;20776;-81
2023/12/03 13:54:42;;;;;;;1.63;1.40;;;3.00;98.20;;;;;;5036231;28;20482;-83